Terminal Aerodrome Forecast
Issued by NWS Twin Cities, MN

Home | Current Version | Previous Version | Graphics & Text | Print | Product List | Glossary Off
Versions: 1 2 3 4 5 6 7 8 9 10 11 12 13 14 15 16 17 18 19 20 21 22 23 24 25 26 27 28 29 30

000
FTUS43 KMPX 252300
TAFMSP
TAF
KMSP 252328Z 2600/2706 13006KT P6SM OVC050
     FM261100 07007KT 5SM -SN BKN025 OVC040
     FM261400 04007KT 2SM -SN BR OVC015
     FM262000 34009KT 6SM -SN OVC018
     FM270000 31012G20KT P6SM BKN018=

USA.gov is the U.S. government's official web portal to all federal, state and local government web resources and services.